createdAt,value
2019-03-13T00:04:16.033Z,9.50
2019-03-13T00:09:07.430Z,9.20
2019-03-13T00:13:58.823Z,8.90
2019-03-13T00:18:50.202Z,8.50
2019-03-13T00:23:41.612Z,8.20
2019-03-13T00:28:32.956Z,7.90
2019-03-13T00:33:24.310Z,7.70
2019-03-13T00:38:15.728Z,7.50
2019-03-13T00:43:07.159Z,7.20
2019-03-13T00:47:58.606Z,7.10
2019-03-13T00:52:49.931Z,7.00
2019-03-13T00:57:41.348Z,6.80
2019-03-13T01:02:32.859Z,6.60
2019-03-13T01:07:24.182Z,6.60
2019-03-13T01:12:15.606Z,6.50
2019-03-13T01:17:06.979Z,6.40
2019-03-13T01:21:58.339Z,6.30
2019-03-13T01:26:49.761Z,6.30
2019-03-13T01:31:41.152Z,6.30
2019-03-13T01:36:32.531Z,6.20
2019-03-13T01:41:23.928Z,6.20
2019-03-13T01:46:15.384Z,6.10
2019-03-13T01:51:06.688Z,6.10
2019-03-13T01:55:58.099Z,6.10
2019-03-13T02:00:49.515Z,6.10
2019-03-13T02:05:40.880Z,6.10
2019-03-13T02:10:32.280Z,6.10
2019-03-13T02:15:23.668Z,6.10
2019-03-13T02:20:15.045Z,6.10
2019-03-13T02:25:06.452Z,6.00
2019-03-13T02:29:57.819Z,5.90
2019-03-13T02:34:49.201Z,5.70
2019-03-13T02:39:40.577Z,5.60
2019-03-13T02:44:32.016Z,5.60
2019-03-13T02:49:23.388Z,5.60
2019-03-13T02:54:14.770Z,5.60
2019-03-13T02:59:06.219Z,5.60
2019-03-13T03:03:57.571Z,5.70
2019-03-13T03:08:48.904Z,5.70
2019-03-13T03:13:40.335Z,5.70
2019-03-13T03:18:31.819Z,5.70
2019-03-13T03:23:23.124Z,5.80
2019-03-13T03:28:14.513Z,5.70
2019-03-13T03:33:05.990Z,5.70
2019-03-13T03:37:57.264Z,5.50
2019-03-13T03:42:48.672Z,5.40
2019-03-13T03:47:40.157Z,5.40
2019-03-13T03:52:31.559Z,5.40
2019-03-13T03:57:23.069Z,5.40
2019-03-13T04:02:14.296Z,5.50
2019-03-13T04:07:05.787Z,5.50
2019-03-13T04:11:57.191Z,5.50
2019-03-13T04:21:40.150Z,5.60
2019-03-13T04:26:31.515Z,5.60
2019-03-13T04:31:22.947Z,5.50
2019-03-13T04:36:14.343Z,5.40
2019-03-13T04:41:05.699Z,5.40
2019-03-13T04:45:57.117Z,5.40
2019-03-13T04:50:48.553Z,5.30
2019-03-13T04:55:39.947Z,5.50
2019-03-13T05:00:31.286Z,5.40
2019-03-13T05:05:22.637Z,5.40
2019-03-13T05:10:14.036Z,5.40
2019-03-13T05:15:05.418Z,5.50
2019-03-13T05:19:56.815Z,5.40
2019-03-13T05:24:48.178Z,5.40
2019-03-13T05:29:39.595Z,5.40
2019-03-13T05:34:30.996Z,5.40
2019-03-13T05:39:22.371Z,5.40
2019-03-13T05:44:13.764Z,5.30
2019-03-13T05:49:05.196Z,5.20
2019-03-13T05:53:56.525Z,5.20
2019-03-13T05:58:47.930Z,5.20
2019-03-13T06:03:39.322Z,5.20
2019-03-13T06:08:30.764Z,5.00
2019-03-13T06:13:22.087Z,4.90
2019-03-13T06:18:13.515Z,4.90
2019-03-13T06:23:04.914Z,4.90
2019-03-13T06:27:56.419Z,4.90
2019-03-13T06:32:47.741Z,4.90
2019-03-13T06:37:39.053Z,4.80
2019-03-13T06:42:30.519Z,4.40
2019-03-13T06:47:25.320Z,4.20
2019-03-13T06:52:13.306Z,4.00
2019-03-13T06:57:04.658Z,4.10
2019-03-13T07:01:56.106Z,4.50
2019-03-13T07:06:47.618Z,4.80
2019-03-13T07:11:38.807Z,5.00
2019-03-13T07:16:30.298Z,5.00
2019-03-13T07:21:24.217Z,5.00
2019-03-13T07:26:13.031Z,5.20
2019-03-13T07:31:04.429Z,5.40
2019-03-13T07:35:58.069Z,5.40
2019-03-13T07:40:49.519Z,5.40
2019-03-13T07:45:40.867Z,5.70
2019-03-13T07:50:32.230Z,5.90
2019-03-13T07:55:23.631Z,6.10
2019-03-13T08:00:15.014Z,6.30
2019-03-13T08:05:06.430Z,6.40
2019-03-13T08:09:57.769Z,6.50
2019-03-13T08:14:49.173Z,6.70
2019-03-13T08:19:40.555Z,6.80
2019-03-13T08:24:32.121Z,6.80
2019-03-13T08:29:23.477Z,6.80
2019-03-13T08:34:14.964Z,7.00
2019-03-13T08:39:06.473Z,7.00
2019-03-13T08:43:57.855Z,7.10
2019-03-13T08:48:49.237Z,7.00
2019-03-13T08:53:40.669Z,6.70
2019-03-13T08:58:32.043Z,6.70
2019-03-13T09:03:23.479Z,6.80
2019-03-13T09:08:14.889Z,7.10
2019-03-13T09:13:06.324Z,7.20
2019-03-13T09:17:57.727Z,7.50
2019-03-13T09:22:49.056Z,7.50
2019-03-13T09:27:40.394Z,7.50
2019-03-13T09:32:31.808Z,7.60
2019-03-13T09:37:23.176Z,7.60
2019-03-13T09:42:14.549Z,7.70
2019-03-13T09:51:57.290Z,8.40
2019-03-13T09:56:48.665Z,8.40
2019-03-13T10:01:40.097Z,8.80
2019-03-13T10:06:31.459Z,8.90
2019-03-13T10:11:22.900Z,9.00
2019-03-13T10:16:14.290Z,9.00
2019-03-13T10:21:05.908Z,8.40
2019-03-13T10:25:57.067Z,8.20
2019-03-13T10:30:48.414Z,8.10
2019-03-13T10:35:40.070Z,8.00
2019-03-13T10:40:31.278Z,8.50
2019-03-13T10:45:22.630Z,8.80
2019-03-13T10:50:13.971Z,8.70
2019-03-13T10:55:05.354Z,8.90
2019-03-13T10:59:56.804Z,9.50
2019-03-13T11:04:48.142Z,9.70
2019-03-13T11:09:39.536Z,9.50
2019-03-13T11:14:30.958Z,9.10
2019-03-13T11:19:22.322Z,8.70
2019-03-13T11:24:13.689Z,8.50
2019-03-13T11:29:05.091Z,8.30
2019-03-13T11:33:56.574Z,8.10
2019-03-13T11:38:47.959Z,8.20
2019-03-13T11:43:42.099Z,8.40
2019-03-13T11:48:30.804Z,8.30
2019-03-13T11:53:22.212Z,8.50
2019-03-13T11:58:13.695Z,8.50
2019-03-13T12:03:04.967Z,8.80
2019-03-13T12:07:56.427Z,9.00
2019-03-13T12:12:47.788Z,9.30
2019-03-13T12:17:39.223Z,10.10
2019-03-13T12:22:30.516Z,10.40
2019-03-13T12:27:21.923Z,10.10
2019-03-13T12:32:13.304Z,9.80
2019-03-13T12:37:07.201Z,9.60
2019-03-13T12:42:00.733Z,9.50
2019-03-13T12:46:52.179Z,9.90
2019-03-13T12:51:48.001Z,10.10
2019-03-13T12:56:39.500Z,10.00
2019-03-13T13:01:33.083Z,9.90
2019-03-13T13:06:26.735Z,10.40
2019-03-13T13:11:18.160Z,9.80
2019-03-13T13:16:09.553Z,9.10
2019-03-13T13:21:00.917Z,9.00
2019-03-13T13:25:52.342Z,8.90
2019-03-13T13:30:46.207Z,8.90
2019-03-13T13:35:37.347Z,9.00
2019-03-13T13:40:28.745Z,9.00
2019-03-13T13:45:20.155Z,9.40
2019-03-13T13:50:11.485Z,9.60
2019-03-13T13:55:05.098Z,9.80
2019-03-13T13:59:59.979Z,9.90
2019-03-13T14:04:50.253Z,10.00
2019-03-13T14:09:43.840Z,9.90
2019-03-13T14:14:36.256Z,9.90
2019-03-13T14:19:26.704Z,9.80
2019-03-13T14:24:20.406Z,9.90
2019-03-13T14:29:11.848Z,9.70
2019-03-13T14:34:05.460Z,9.60
2019-03-13T14:38:56.870Z,9.70
2019-03-13T14:43:48.502Z,9.80
2019-03-13T14:48:39.692Z,9.60
2019-03-13T14:53:41.078Z,9.70
2019-03-13T14:58:22.413Z,9.80
2019-03-13T15:03:13.789Z,9.30
2019-03-13T15:08:07.417Z,9.30
2019-03-13T15:12:58.921Z,9.60
2019-03-13T15:17:58.047Z,9.80
2019-03-13T15:22:48.461Z,9.60
2019-03-13T15:27:42.049Z,9.50
2019-03-13T15:37:27.200Z,9.20
2019-03-13T15:42:18.497Z,9.20
2019-03-13T15:47:12.107Z,9.10
2019-03-13T15:52:05.825Z,8.90
2019-03-13T15:56:57.219Z,8.80
2019-03-13T16:01:50.874Z,8.70
2019-03-13T16:06:49.008Z,8.50
2019-03-13T16:11:42.703Z,8.50
2019-03-13T16:16:34.192Z,8.30
2019-03-13T16:21:25.550Z,8.30
2019-03-13T16:26:23.733Z,8.30
2019-03-13T16:31:17.347Z,8.20
2019-03-13T16:36:11.036Z,8.30
2019-03-13T16:41:04.731Z,8.20
2019-03-13T16:46:00.672Z,8.10
2019-03-13T16:50:52.083Z,8.00
2019-03-13T16:55:48.089Z,8.00
2019-03-13T17:00:41.721Z,7.80
2019-03-13T17:05:33.184Z,7.80
2019-03-13T17:10:26.789Z,7.70
2019-03-13T17:15:18.191Z,7.60
2019-03-13T17:20:14.112Z,7.60
2019-03-13T17:25:05.798Z,7.60
2019-03-13T17:29:56.972Z,7.40
2019-03-13T17:34:50.484Z,7.40
2019-03-13T17:39:46.394Z,7.40
2019-03-13T17:44:44.667Z,7.40
2019-03-13T17:49:36.054Z,7.40
2019-03-13T17:54:29.751Z,7.40
2019-03-13T17:59:25.631Z,7.40
2019-03-13T18:04:22.057Z,7.30
2019-03-13T18:09:13.129Z,7.40
2019-03-13T18:14:04.507Z,7.20
2019-03-13T18:18:58.047Z,7.20
2019-03-13T18:23:53.992Z,7.20
2019-03-13T18:28:45.434Z,7.10
2019-03-13T18:33:37.100Z,7.00
2019-03-13T18:38:30.504Z,6.80
2019-03-13T18:43:21.886Z,6.70
2019-03-13T18:48:13.436Z,6.60
2019-03-13T18:53:04.800Z,6.40
2019-03-13T18:57:56.140Z,6.30
2019-03-13T19:02:47.550Z,6.10
2019-03-13T19:07:39.210Z,6.00
2019-03-13T19:12:30.404Z,6.00
2019-03-13T19:17:22.040Z,5.90
2019-03-13T19:22:13.177Z,5.70
2019-03-13T19:27:04.490Z,5.60
2019-03-13T19:31:55.913Z,5.40
2019-03-13T19:36:47.388Z,5.30
2019-03-13T19:41:38.701Z,5.20
2019-03-13T19:46:32.865Z,5.20
2019-03-13T19:51:21.491Z,5.30
2019-03-13T19:56:12.886Z,5.20
2019-03-13T20:01:09.241Z,5.30
2019-03-13T20:05:55.597Z,5.20
2019-03-13T20:10:58.599Z,5.20
2019-03-13T20:15:38.429Z,5.10
2019-03-13T20:20:29.747Z,5.10
2019-03-13T20:25:21.151Z,5.10
2019-03-13T20:30:12.696Z,5.10
2019-03-13T20:35:03.968Z,5.20
2019-03-13T20:39:55.296Z,5.30
2019-03-13T20:44:46.773Z,5.30
2019-03-13T20:49:38.280Z,5.40
2019-03-13T20:54:29.484Z,5.60
2019-03-13T20:59:20.871Z,5.60
2019-03-13T21:04:12.407Z,5.70
2019-03-13T21:09:03.952Z,5.90
2019-03-13T21:13:55.139Z,6.00
2019-03-13T21:18:46.682Z,6.00
2019-03-13T21:23:38.352Z,6.00
2019-03-13T21:28:29.506Z,6.00
2019-03-13T21:33:20.943Z,6.00
2019-03-13T21:38:13.884Z,5.80
2019-03-13T21:43:03.726Z,5.80
2019-03-13T21:47:55.098Z,5.80
2019-03-13T21:52:46.760Z,5.70
2019-03-13T21:57:37.952Z,5.70
2019-03-13T22:02:36.974Z,5.70
2019-03-13T22:07:21.079Z,5.50
2019-03-13T22:12:12.184Z,5.40
2019-03-13T22:17:03.697Z,5.40
2019-03-13T22:21:55.037Z,5.30
2019-03-13T22:26:46.435Z,5.20
2019-03-13T22:31:38.178Z,5.20
2019-03-13T22:36:29.567Z,5.30
2019-03-13T22:41:20.942Z,5.30
2019-03-13T22:46:12.328Z,5.30
2019-03-13T22:51:03.770Z,5.30
2019-03-13T22:55:55.139Z,5.30
2019-03-13T23:00:46.542Z,5.30
2019-03-13T23:05:37.932Z,5.40
2019-03-13T23:10:29.281Z,5.40
2019-03-13T23:15:20.712Z,5.40
2019-03-13T23:20:12.087Z,5.40
2019-03-13T23:25:03.450Z,5.40
2019-03-13T23:29:54.827Z,5.40
2019-03-13T23:34:46.332Z,5.40
2019-03-13T23:39:37.607Z,5.40
2019-03-13T23:44:29.046Z,5.50
2019-03-13T23:49:20.406Z,5.50
2019-03-13T23:54:11.816Z,5.50
2019-03-13T23:59:03.195Z,5.60
